Time;durP1;ratioP1;P1;durP2;ratioP2;P2;SDS_P1;SDS_P2;PMS_P1;PMS_P2;Temp;Humidity;BMP_temperature;BMP_pressure;BME280_temperature;BME280_humidity;BME280_pressure;Samples;Min_cycle;Max_cycle;Signal;HPM_P1;HPM_P2
2022/11/06 00:00:41;;;;;;;9.13;4.30;;;11.30;99.90;;;;;;5056134;28;20221;-78
2022/11/06 00:03:08;;;;;;;8.70;4.73;;;11.30;99.90;;;;;;5054245;28;20216;-80
2022/11/06 00:08:29;;;;;;;10.87;4.33;;;11.30;99.90;;;;;;5036047;28;20636;-78
2022/11/06 00:10:57;;;;;;;8.93;4.77;;;11.30;99.90;;;;;;5055998;28;20590;-82
2022/11/06 00:13:23;;;;;;;8.10;4.50;;;11.30;99.90;;;;;;5055133;28;20213;-82
2022/11/06 00:15:51;;;;;;;6.97;4.50;;;11.30;99.90;;;;;;5037440;28;20206;-83
2022/11/06 00:18:18;;;;;;;11.00;5.67;;;11.30;99.90;;;;;;5037166;28;20233;-82
2022/11/06 00:20:46;;;;;;;10.47;5.10;;;11.30;99.90;;;;;;5037112;28;20642;-83
2022/11/06 00:23:13;;;;;;;7.47;4.97;;;11.40;99.90;;;;;;5037627;28;20264;-85
2022/11/06 00:25:41;;;;;;;12.23;5.50;;;11.30;99.90;;;;;;5053013;28;20206;-80
2022/11/06 00:28:07;;;;;;;10.73;5.20;;;11.40;99.90;;;;;;5061726;28;20311;-80
2022/11/06 00:30:34;;;;;;;8.33;5.30;;;11.30;99.90;;;;;;5045913;28;20501;-83
2022/11/06 00:33:01;;;;;;;11.50;5.60;;;11.30;99.90;;;;;;5036177;28;20226;-81
2022/11/06 00:35:28;;;;;;;7.87;4.30;;;11.30;99.90;;;;;;5036337;28;20209;-82
2022/11/06 00:37:56;;;;;;;9.40;4.53;;;11.40;99.90;;;;;;5036704;28;20621;-82
2022/11/06 00:40:23;;;;;;;9.70;5.30;;;11.40;99.90;;;;;;5037076;28;20233;-81
2022/11/06 00:42:55;;;;;;;9.57;4.90;;;11.40;99.90;;;;;;5056465;28;20202;-81
2022/11/06 00:45:21;;;;;;;11.47;5.43;;;11.40;99.90;;;;;;5056471;28;20657;-80
2022/11/06 00:47:48;;;;;;;14.50;5.40;;;11.40;99.90;;;;;;5054651;28;20221;-81
2022/11/06 00:50:16;;;;;;;17.17;6.13;;;11.40;99.90;;;;;;5055313;28;20271;-80
2022/11/06 00:52:43;;;;;;;12.47;5.73;;;11.40;99.90;;;;;;5054027;28;20866;-80
2022/11/06 00:55:11;;;;;;;11.80;5.63;;;11.40;99.90;;;;;;5056200;28;20198;-81
2022/11/06 00:57:38;;;;;;;16.50;6.00;;;11.40;99.90;;;;;;5054099;28;20213;-81
2022/11/06 01:00:06;;;;;;;11.47;5.67;;;11.40;99.90;;;;;;5055459;28;20224;-80
2022/11/06 01:02:33;;;;;;;10.10;5.60;;;11.40;99.90;;;;;;5056048;28;20224;-82
2022/11/06 01:05:00;;;;;;;10.13;6.53;;;11.40;99.90;;;;;;5055357;28;20198;-81
2022/11/06 01:07:26;;;;;;;8.67;5.23;;;11.50;99.90;;;;;;5053512;28;20201;-79
2022/11/06 01:09:53;;;;;;;10.23;6.30;;;11.50;99.90;;;;;;5055925;28;20201;-84
2022/11/06 01:12:22;;;;;;;15.00;6.77;;;11.40;99.90;;;;;;5055768;28;20198;-83
2022/11/06 01:14:48;;;;;;;9.97;6.13;;;11.40;99.90;;;;;;5035683;28;20211;-80
2022/11/06 01:17:15;;;;;;;11.87;6.50;;;11.40;99.90;;;;;;5035762;28;20298;-83
2022/11/06 01:19:42;;;;;;;13.43;6.73;;;11.40;99.90;;;;;;5047745;28;20233;-83
2022/11/06 01:22:09;;;;;;;11.20;6.23;;;11.50;99.90;;;;;;5055559;28;20297;-82
2022/11/06 01:24:36;;;;;;;9.43;6.03;;;11.40;99.90;;;;;;5055355;28;20228;-81
2022/11/06 01:27:03;;;;;;;9.80;6.93;;;11.40;99.90;;;;;;5055759;28;20286;-83
2022/11/06 01:29:31;;;;;;;9.90;6.77;;;11.40;99.90;;;;;;5052381;28;20286;-79
2022/11/06 01:31:58;;;;;;;11.73;6.77;;;11.40;99.90;;;;;;5055749;28;20292;-82
2022/11/06 01:34:26;;;;;;;12.13;6.93;;;11.40;99.90;;;;;;5055545;28;20217;-85
2022/11/06 01:36:52;;;;;;;14.87;8.03;;;11.40;99.90;;;;;;5054616;28;20210;-84
2022/11/06 01:39:19;;;;;;;12.53;7.07;;;11.40;99.90;;;;;;5053520;28;20763;-80
2022/11/06 01:41:49;;;;;;;9.47;6.50;;;11.40;99.90;;;;;;5053526;28;20209;-79
2022/11/06 01:44:53;;;;;;;13.80;6.77;;;11.40;99.90;;;;;;5048434;28;20206;-85
2022/11/06 01:47:24;;;;;;;11.00;6.40;;;11.40;99.90;;;;;;5035811;28;20587;-81
2022/11/06 01:50:01;;;;;;;9.57;7.20;;;11.40;99.90;;;;;;5035792;28;20191;-84
2022/11/06 01:52:29;;;;;;;14.30;7.43;;;11.40;99.90;;;;;;5035328;28;20234;-83
2022/11/06 01:55:04;;;;;;;9.37;6.60;;;11.40;99.90;;;;;;5035459;28;20294;-83
2022/11/06 01:57:31;;;;;;;12.13;7.47;;;11.40;99.90;;;;;;5041676;28;20276;-80
2022/11/06 01:59:58;;;;;;;10.87;6.90;;;11.40;99.90;;;;;;5055430;28;20230;-82
2022/11/06 02:02:26;;;;;;;13.13;6.47;;;11.40;99.90;;;;;;5045052;28;20720;-82
2022/11/06 02:04:53;;;;;;;10.93;6.60;;;11.50;99.90;;;;;;5034825;28;20287;-81
2022/11/06 02:07:21;;;;;;;10.07;6.70;;;11.40;99.90;;;;;;5043821;28;20206;-84
2022/11/06 02:09:47;;;;;;;10.73;6.80;;;11.50;99.90;;;;;;5054140;28;20190;-84
2022/11/06 02:12:22;;;;;;;9.97;6.93;;;11.50;99.90;;;;;;5035452;28;20202;-84
2022/11/06 02:15:03;;;;;;;9.83;6.60;;;11.50;99.90;;;;;;5035156;28;20211;-82
2022/11/06 02:17:55;;;;;;;8.70;6.67;;;11.50;99.90;;;;;;5041283;28;20205;-83
2022/11/06 02:20:29;;;;;;;8.97;6.87;;;11.50;99.90;;;;;;5055497;28;20279;-83
2022/11/06 02:23:12;;;;;;;8.17;6.90;;;11.40;99.90;;;;;;5059833;28;20216;-84
2022/11/06 02:25:48;;;;;;;8.57;7.10;;;11.40;99.90;;;;;;5062039;28;20201;-84
2022/11/06 02:28:23;;;;;;;10.50;6.67;;;11.40;99.90;;;;;;5055305;28;20201;-80
2022/11/06 02:30:50;;;;;;;10.30;7.37;;;11.40;99.90;;;;;;5053774;28;20189;-83
2022/11/06 02:33:22;;;;;;;10.40;6.70;;;11.40;99.90;;;;;;5039124;28;20197;-79
2022/11/06 02:35:53;;;;;;;10.83;7.50;;;11.40;99.90;;;;;;5054441;28;20195;-81
2022/11/06 02:38:24;;;;;;;10.30;6.90;;;11.50;99.90;;;;;;5054013;28;20201;-82
2022/11/06 02:40:55;;;;;;;10.37;7.27;;;11.40;99.90;;;;;;5054277;28;20232;-79
2022/11/06 02:43:28;;;;;;;11.77;7.93;;;11.40;99.90;;;;;;5052068;28;20203;-84
2022/11/06 02:45:58;;;;;;;9.63;7.17;;;11.40;99.90;;;;;;5054667;28;20190;-83
2022/11/06 02:48:31;;;;;;;10.93;7.53;;;11.40;99.90;;;;;;5053743;28;20620;-81
2022/11/06 02:51:01;;;;;;;8.67;6.87;;;11.40;99.90;;;;;;5034284;28;20214;-84
2022/11/06 02:53:30;;;;;;;7.77;7.00;;;11.40;99.90;;;;;;5034533;28;20230;-83
2022/11/06 02:56:01;;;;;;;9.30;6.60;;;11.50;99.90;;;;;;5048353;28;20225;-80
2022/11/06 02:58:35;;;;;;;10.23;7.03;;;11.50;99.90;;;;;;5054640;28;20208;-82
2022/11/06 03:01:07;;;;;;;8.57;7.47;;;11.50;99.90;;;;;;5053750;28;20229;-86
2022/11/06 03:03:39;;;;;;;11.77;7.60;;;11.50;99.90;;;;;;5054396;28;20281;-81
2022/11/06 03:06:10;;;;;;;9.57;6.57;;;11.50;99.90;;;;;;5039836;28;20832;-81
2022/11/06 03:08:42;;;;;;;8.83;7.13;;;11.50;99.90;;;;;;5034338;28;20610;-85
2022/11/06 03:11:17;;;;;;;7.93;6.30;;;11.50;99.90;;;;;;5034265;28;20231;-83
2022/11/06 03:13:52;;;;;;;10.50;7.57;;;11.50;99.90;;;;;;5032949;28;20198;-79
2022/11/06 03:16:28;;;;;;;9.30;6.53;;;11.50;99.90;;;;;;5042624;28;20240;-81
2022/11/06 03:19:02;;;;;;;8.90;6.37;;;11.50;99.90;;;;;;5034665;28;20530;-85
2022/11/06 03:21:36;;;;;;;9.67;6.90;;;11.50;99.90;;;;;;5051516;28;20225;-85
2022/11/06 03:24:13;;;;;;;7.20;6.50;;;11.50;99.90;;;;;;5054422;28;20614;-85
2022/11/06 03:26:44;;;;;;;8.30;6.90;;;11.50;99.90;;;;;;5038285;28;20216;-86
2022/11/06 03:29:16;;;;;;;12.17;7.77;;;11.50;99.90;;;;;;5034397;28;20281;-85
2022/11/06 03:31:49;;;;;;;8.57;6.77;;;11.50;99.90;;;;;;5037951;28;20194;-83
2022/11/06 03:34:21;;;;;;;9.53;7.70;;;11.50;99.90;;;;;;5052967;28;20233;-83
2022/11/06 03:36:53;;;;;;;8.90;7.87;;;11.50;99.90;;;;;;5052191;28;20653;-81
2022/11/06 03:39:25;;;;;;;9.40;7.00;;;11.60;99.90;;;;;;5034262;28;20202;-84
2022/11/06 03:41:58;;;;;;;9.73;7.40;;;11.50;99.90;;;;;;5033342;28;20688;-84
2022/11/06 03:44:28;;;;;;;10.70;7.23;;;11.50;99.90;;;;;;5034229;28;20201;-85
2022/11/06 03:47:03;;;;;;;8.40;7.23;;;11.60;99.90;;;;;;5034769;28;20608;-84
2022/11/06 03:49:34;;;;;;;9.70;7.57;;;11.50;99.90;;;;;;5053507;28;20196;-82
2022/11/06 03:52:06;;;;;;;7.73;6.93;;;11.50;99.90;;;;;;5053212;28;20204;-82
2022/11/06 03:54:39;;;;;;;9.27;7.60;;;11.50;99.90;;;;;;5051213;28;20576;-81
2022/11/06 03:57:13;;;;;;;11.17;7.73;;;11.50;99.90;;;;;;5052704;28;20209;-83
2022/11/06 03:59:45;;;;;;;7.47;6.77;;;11.50;99.90;;;;;;5051262;28;20244;-81
2022/11/06 04:02:14;;;;;;;9.23;8.00;;;11.50;99.90;;;;;;5053179;28;20212;-82
2022/11/06 04:04:46;;;;;;;8.87;7.40;;;11.50;99.90;;;;;;5049944;28;20617;-80
2022/11/06 04:07:15;;;;;;;10.90;8.23;;;11.40;99.90;;;;;;5052918;28;20202;-84
2022/11/06 04:15:23;;;;;;;10.90;9.00;;;11.50;99.90;;;;;;5051054;28;20231;-83
2022/11/06 04:17:50;;;;;;;11.17;9.20;;;11.50;99.90;;;;;;5052571;28;20233;-82
2022/11/06 04:23:18;;;;;;;11.43;10.23;;;11.40;99.90;;;;;;5034472;28;20492;-84
2022/11/06 04:28:48;;;;;;;13.10;11.67;;;11.40;99.90;;;;;;5052062;28;20186;-83
2022/11/06 04:31:24;;;;;;;14.03;12.60;;;11.40;99.90;;;;;;5048842;28;20189;-79
2022/11/06 04:33:59;;;;;;;13.80;12.13;;;11.40;99.90;;;;;;5052319;28;20200;-80
2022/11/06 04:36:34;;;;;;;14.07;12.50;;;11.50;99.90;;;;;;5048651;28;20289;-79
2022/11/06 04:39:10;;;;;;;17.07;13.37;;;11.40;99.90;;;;;;5051062;28;20200;-80
2022/11/06 04:41:42;;;;;;;16.83;13.30;;;11.40;99.90;;;;;;5051618;28;20229;-80
2022/11/06 04:44:13;;;;;;;15.63;14.00;;;11.30;99.90;;;;;;5033261;28;20203;-79
2022/11/06 04:46:47;;;;;;;17.03;14.00;;;11.30;99.90;;;;;;5034578;28;20194;-81
2022/11/06 04:49:15;;;;;;;15.77;14.07;;;11.30;99.90;;;;;;5051823;28;20194;-83
2022/11/06 04:51:44;;;;;;;18.80;14.70;;;11.30;99.90;;;;;;5055159;28;20198;-80
2022/11/06 04:54:12;;;;;;;20.43;16.70;;;11.30;99.90;;;;;;5053429;28;20316;-79
2022/11/06 04:56:39;;;;;;;20.53;16.07;;;11.30;99.90;;;;;;5056112;28;20206;-81
2022/11/06 04:59:06;;;;;;;21.20;16.73;;;11.30;99.90;;;;;;5052917;28;20610;-84
2022/11/06 05:01:33;;;;;;;18.67;16.77;;;11.20;99.90;;;;;;5055577;28;20226;-80
2022/11/06 05:04:02;;;;;;;19.40;15.93;;;11.30;99.90;;;;;;5055211;28;20474;-84
2022/11/06 05:06:28;;;;;;;20.60;16.80;;;11.30;99.90;;;;;;5055667;28;20375;-81
2022/11/06 05:08:56;;;;;;;18.80;16.07;;;11.30;99.90;;;;;;5055754;28;20198;-81
2022/11/06 05:11:23;;;;;;;19.10;16.60;;;11.30;99.90;;;;;;5037390;28;20207;-81
2022/11/06 05:13:50;;;;;;;20.23;16.30;;;11.30;99.90;;;;;;5035739;28;20249;-79
2022/11/06 05:16:17;;;;;;;19.13;16.33;;;11.30;99.90;;;;;;5046704;28;20202;-82
2022/11/06 05:18:44;;;;;;;18.47;16.40;;;11.30;99.90;;;;;;5055412;28;20238;-84
2022/11/06 05:23:59;;;;;;;17.30;15.33;;;11.30;99.90;;;;;;5035491;28;20681;-80
2022/11/06 05:26:26;;;;;;;21.60;16.00;;;11.20;99.90;;;;;;5039763;28;20198;-82
2022/11/06 05:28:52;;;;;;;19.27;16.37;;;11.20;99.90;;;;;;5055195;28;20194;-82
2022/11/06 05:31:19;;;;;;;16.67;14.07;;;11.20;99.90;;;;;;5053659;28;20213;-79
2022/11/06 05:33:46;;;;;;;21.60;15.47;;;11.20;99.90;;;;;;5053668;28;20213;-78
2022/11/06 05:36:14;;;;;;;18.17;14.00;;;11.20;99.90;;;;;;5055015;28;20229;-81
2022/11/06 05:38:41;;;;;;;17.73;15.07;;;11.20;99.90;;;;;;5054391;28;20210;-82
2022/11/06 05:41:08;;;;;;;18.73;14.57;;;11.10;99.90;;;;;;5054519;28;20222;-81
2022/11/06 05:43:35;;;;;;;17.53;14.97;;;11.20;99.90;;;;;;5053020;28;20208;-81
2022/11/06 05:46:02;;;;;;;17.87;14.33;;;11.20;99.90;;;;;;5054696;28;20202;-82
2022/11/06 05:48:29;;;;;;;17.47;14.70;;;11.20;99.90;;;;;;5055100;28;20520;-80
2022/11/06 05:51:00;;;;;;;17.80;14.93;;;11.20;99.90;;;;;;5054454;28;20502;-82
2022/11/06 05:53:29;;;;;;;17.37;14.47;;;11.20;99.90;;;;;;5053394;28;20679;-85
2022/11/06 05:55:56;;;;;;;17.80;14.83;;;11.20;99.90;;;;;;5053766;28;20208;-82
2022/11/06 05:58:23;;;;;;;15.80;14.23;;;11.20;99.90;;;;;;5053148;28;20232;-84
2022/11/06 06:00:50;;;;;;;15.33;13.50;;;11.20;99.90;;;;;;5055109;28;20278;-81
2022/11/06 06:03:17;;;;;;;15.13;13.53;;;11.20;99.90;;;;;;5053480;28;20213;-81
2022/11/06 06:05:44;;;;;;;16.37;13.40;;;11.10;99.90;;;;;;5035088;28;20217;-82
2022/11/06 06:08:11;;;;;;;15.60;13.00;;;11.20;99.90;;;;;;5035036;28;20198;-82
2022/11/06 06:10:42;;;;;;;19.20;13.87;;;11.20;99.90;;;;;;5034711;28;20209;-81
2022/11/06 06:13:09;;;;;;;14.80;13.27;;;11.20;99.90;;;;;;5034891;28;20678;-83
2022/11/06 06:15:38;;;;;;;19.40;14.13;;;11.20;99.90;;;;;;5035793;28;20244;-82
2022/11/06 06:18:05;;;;;;;18.50;13.77;;;11.20;99.90;;;;;;5034091;28;20255;-80
2022/11/06 06:20:33;;;;;;;17.03;13.60;;;11.20;99.90;;;;;;5034362;28;20665;-80
2022/11/06 06:23:00;;;;;;;17.47;13.40;;;11.20;99.90;;;;;;5033480;28;20212;-83
2022/11/06 06:25:29;;;;;;;16.13;13.47;;;11.20;99.90;;;;;;5038282;28;20292;-82
2022/11/06 06:27:57;;;;;;;14.63;12.73;;;11.20;99.90;;;;;;5054767;28;20205;-79
2022/11/06 06:30:25;;;;;;;14.30;12.20;;;11.20;99.90;;;;;;5053939;28;20594;-80
2022/11/06 06:32:52;;;;;;;16.37;12.60;;;11.20;99.90;;;;;;5052160;28;20210;-81
2022/11/06 06:35:19;;;;;;;15.67;13.10;;;11.20;99.90;;;;;;5054279;28;20201;-80
2022/11/06 06:37:52;;;;;;;19.90;13.17;;;11.20;99.90;;;;;;5040772;28;20290;-82
2022/11/06 06:40:19;;;;;;;14.23;12.83;;;11.20;99.90;;;;;;5034525;28;20430;-82
2022/11/06 06:42:45;;;;;;;18.27;12.73;;;11.20;99.90;;;;;;5034450;28;20206;-81
2022/11/06 06:45:14;;;;;;;19.87;13.50;;;11.20;99.90;;;;;;5033541;28;20202;-81
2022/11/06 06:47:41;;;;;;;15.27;11.80;;;11.10;99.90;;;;;;5039790;28;20281;-83
2022/11/06 06:50:09;;;;;;;20.10;13.10;;;11.10;99.90;;;;;;5054139;28;20728;-81
2022/11/06 06:52:36;;;;;;;14.97;13.17;;;11.20;99.90;;;;;;5050973;28;20512;-80
2022/11/06 06:55:03;;;;;;;18.10;13.60;;;11.20;99.90;;;;;;5036685;28;20218;-83
2022/11/06 06:57:30;;;;;;;18.97;13.13;;;11.10;99.90;;;;;;5034365;28;20202;-84
2022/11/06 06:59:57;;;;;;;19.10;13.00;;;11.10;99.90;;;;;;5041317;28;20255;-82
2022/11/06 07:02:25;;;;;;;18.03;13.33;;;11.10;99.90;;;;;;5050823;28;20214;-82
2022/11/06 07:04:52;;;;;;;15.50;13.13;;;11.10;99.90;;;;;;5048243;28;20221;-84
2022/11/06 07:07:19;;;;;;;16.10;13.00;;;11.10;99.90;;;;;;5033605;28;20210;-82
2022/11/06 07:09:46;;;;;;;17.20;13.40;;;11.10;99.90;;;;;;5033721;28;20212;-80
2022/11/06 07:12:12;;;;;;;16.93;12.33;;;11.10;99.90;;;;;;5034056;28;20205;-83
2022/11/06 07:14:39;;;;;;;17.40;11.93;;;11.10;99.90;;;;;;5047198;28;20210;-83
2022/11/06 07:17:06;;;;;;;15.50;11.90;;;11.10;99.90;;;;;;5051763;28;20198;-82
2022/11/06 07:19:34;;;;;;;15.67;13.13;;;11.20;99.90;;;;;;5033426;28;20235;-82
2022/11/06 07:22:01;;;;;;;13.73;12.10;;;11.10;99.90;;;;;;5033748;28;20230;-83
2022/11/06 07:24:28;;;;;;;16.77;12.07;;;11.10;99.90;;;;;;5033680;28;20199;-81
2022/11/06 07:26:55;;;;;;;14.53;10.80;;;11.20;99.90;;;;;;5032886;28;20207;-81
2022/11/06 07:29:21;;;;;;;12.27;10.83;;;11.10;99.90;;;;;;5033385;28;20207;-80
2022/11/06 07:31:48;;;;;;;13.13;10.33;;;11.20;99.90;;;;;;5033762;28;20207;-81
2022/11/06 07:34:15;;;;;;;12.07;10.00;;;11.10;99.90;;;;;;5037028;28;20804;-81
2022/11/06 07:36:44;;;;;;;11.00;9.37;;;11.10;99.90;;;;;;5040933;28;20213;-81
2022/11/06 07:39:10;;;;;;;11.63;9.70;;;11.10;99.90;;;;;;5032493;28;20289;-83
2022/11/06 07:41:37;;;;;;;13.90;9.47;;;11.20;99.90;;;;;;5033081;28;20223;-84
2022/11/06 07:44:04;;;;;;;9.67;8.67;;;11.20;99.90;;;;;;5032709;28;20198;-82
2022/11/06 07:46:31;;;;;;;10.83;9.13;;;11.20;99.90;;;;;;5033678;28;20210;-82
2022/11/06 07:48:58;;;;;;;10.80;8.27;;;11.20;99.90;;;;;;5032779;28;20289;-82
2022/11/06 07:51:25;;;;;;;11.10;8.73;;;11.20;99.90;;;;;;5032756;28;20479;-81
2022/11/06 07:53:54;;;;;;;10.73;8.47;;;11.20;99.90;;;;;;5048142;28;20236;-82
2022/11/06 07:56:20;;;;;;;11.87;8.87;;;11.20;99.90;;;;;;5051108;28;20209;-81
2022/11/06 07:58:47;;;;;;;13.67;8.57;;;11.20;99.90;;;;;;5039648;28;20202;-80
2022/11/06 08:01:16;;;;;;;10.57;8.07;;;11.20;99.90;;;;;;5032673;28;20230;-82
2022/11/06 08:03:43;;;;;;;11.70;8.20;;;11.10;99.90;;;;;;5031821;28;20199;-79
2022/11/06 08:06:11;;;;;;;10.63;8.70;;;11.10;99.90;;;;;;5031937;28;20281;-81
2022/11/06 08:08:37;;;;;;;12.10;8.47;;;11.10;99.90;;;;;;5032532;28;20210;-83
2022/11/06 08:11:07;;;;;;;11.17;8.43;;;11.10;99.90;;;;;;5054462;28;20209;-87
2022/11/06 08:13:35;;;;;;;9.93;7.97;;;11.10;99.90;;;;;;5055378;28;20210;-88
2022/11/06 08:16:05;;;;;;;10.70;8.63;;;11.10;99.90;;;;;;5039380;28;20216;-83
2022/11/06 08:18:31;;;;;;;10.13;7.90;;;11.10;99.90;;;;;;5053569;28;20733;-85
2022/11/06 08:20:58;;;;;;;9.63;7.90;;;11.10;99.90;;;;;;5051718;28;20207;-87
2022/11/06 08:23:25;;;;;;;9.27;7.80;;;11.10;99.90;;;;;;5058125;28;20927;-88
2022/11/06 08:25:55;;;;;;;11.97;8.57;;;11.10;99.90;;;;;;5049139;28;20252;-87
2022/11/06 08:28:23;;;;;;;12.53;8.07;;;11.10;99.90;;;;;;5037908;28;20198;-88
2022/11/06 08:30:50;;;;;;;15.80;6.90;;;11.20;99.90;;;;;;5054897;28;20218;-89
2022/11/06 08:33:17;;;;;;;13.73;6.73;;;11.20;99.90;;;;;;5056779;28;20217;-90
2022/11/06 08:35:44;;;;;;;11.10;6.83;;;11.20;99.90;;;;;;5058003;28;20202;-87
2022/11/06 08:38:11;;;;;;;13.70;6.80;;;11.10;99.90;;;;;;5057323;28;20499;-86
2022/11/06 08:40:39;;;;;;;9.77;5.70;;;11.20;99.90;;;;;;5058179;28;20296;-88
2022/11/06 08:43:09;;;;;;;14.17;6.33;;;11.10;99.90;;;;;;5047811;28;20226;-86
2022/11/06 08:45:40;;;;;;;15.60;7.17;;;11.20;99.90;;;;;;5037895;28;20205;-84
2022/11/06 08:48:08;;;;;;;10.80;6.17;;;11.20;99.90;;;;;;5037497;28;20289;-85
2022/11/06 08:50:36;;;;;;;12.70;5.90;;;11.20;99.90;;;;;;5037692;28;20596;-83
2022/11/06 08:53:05;;;;;;;8.50;5.13;;;11.20;99.90;;;;;;5037298;28;20574;-82
2022/11/06 08:55:32;;;;;;;9.47;5.80;;;11.20;99.90;;;;;;5037287;28;20289;-84
2022/11/06 08:58:00;;;;;;;8.17;5.40;;;11.20;99.90;;;;;;5045684;28;20304;-85
2022/11/06 09:00:27;;;;;;;12.93;5.87;;;11.20;99.90;;;;;;5043304;28;20202;-84
2022/11/06 09:03:00;;;;;;;10.67;5.60;;;11.20;99.90;;;;;;5036846;28;20564;-82
2022/11/06 09:05:28;;;;;;;9.30;5.60;;;11.20;99.90;;;;;;5046388;28;20202;-83
2022/11/06 09:07:56;;;;;;;8.33;5.03;;;11.20;99.90;;;;;;5037184;28;20560;-84
2022/11/06 09:10:23;;;;;;;10.27;5.43;;;11.30;99.90;;;;;;5038460;28;20587;-84
2022/11/06 09:12:50;;;;;;;10.60;5.27;;;11.30;99.90;;;;;;5036952;28;20202;-84
2022/11/06 09:15:18;;;;;;;7.53;4.87;;;11.30;99.90;;;;;;5045968;28;20206;-86
2022/11/06 09:17:45;;;;;;;9.83;4.67;;;11.30;99.90;;;;;;5036980;28;20245;-82
2022/11/06 09:20:14;;;;;;;12.13;5.70;;;11.30;99.90;;;;;;5035316;28;20202;-86
2022/11/06 09:22:41;;;;;;;9.47;5.03;;;11.40;99.90;;;;;;5036815;28;20221;-86
2022/11/06 09:25:09;;;;;;;7.43;4.57;;;11.30;99.90;;;;;;5048433;28;20300;-86
2022/11/06 09:27:42;;;;;;;10.33;6.77;;;11.30;99.90;;;;;;5041541;28;20203;-86
2022/11/06 09:30:10;;;;;;;7.03;3.93;;;11.40;99.90;;;;;;5061448;28;20631;-86
2022/11/06 09:32:37;;;;;;;8.27;4.50;;;11.40;99.90;;;;;;5056561;28;20208;-85
2022/11/06 09:35:06;;;;;;;10.03;4.87;;;11.40;99.90;;;;;;5051752;28;20225;-85
2022/11/06 09:37:36;;;;;;;13.00;5.07;;;11.40;99.90;;;;;;5036643;28;20666;-83
2022/11/06 09:40:03;;;;;;;11.47;5.20;;;11.40;99.90;;;;;;5036435;28;20527;-87
2022/11/06 09:42:43;;;;;;;12.93;4.87;;;11.40;99.90;;;;;;5041446;28;20232;-86
2022/11/06 09:45:14;;;;;;;9.87;4.67;;;11.40;99.90;;;;;;5038594;28;20293;-86
2022/11/06 09:47:47;;;;;;;9.53;5.20;;;11.40;99.90;;;;;;5036178;28;20205;-83
2022/11/06 09:50:17;;;;;;;11.20;4.20;;;11.50;99.90;;;;;;5036533;28;20590;-86
2022/11/06 09:52:50;;;;;;;8.17;3.73;;;11.50;99.90;;;;;;5036483;28;20223;-86
2022/11/06 09:55:21;;;;;;;8.93;4.83;;;11.50;99.90;;;;;;5036442;28;20248;-85
2022/11/06 09:57:51;;;;;;;9.60;4.00;;;11.50;99.90;;;;;;5049022;28;20206;-87
2022/11/06 10:00:19;;;;;;;6.53;4.03;;;11.50;99.90;;;;;;5056412;28;20880;-85
2022/11/06 10:02:49;;;;;;;8.43;3.27;;;11.50;99.90;;;;;;5042943;28;20230;-86
2022/11/06 10:05:24;;;;;;;8.77;4.17;;;11.50;99.90;;;;;;5036150;28;20198;-84
2022/11/06 10:07:55;;;;;;;11.67;4.23;;;11.60;99.90;;;;;;5036192;28;20198;-86
2022/11/06 10:10:27;;;;;;;7.00;3.47;;;11.60;99.90;;;;;;5039292;28;20624;-84
2022/11/06 10:13:06;;;;;;;6.17;3.40;;;11.60;99.90;;;;;;5049407;28;20293;-80
2022/11/06 10:15:37;;;;;;;7.13;3.67;;;11.60;99.90;;;;;;5040427;28;20204;-79
2022/11/06 10:18:12;;;;;;;11.57;3.80;;;11.60;99.90;;;;;;5052205;28;20653;-88
2022/11/06 10:20:46;;;;;;;9.60;3.80;;;11.60;99.90;;;;;;5047880;28;20194;-80
2022/11/06 10:23:20;;;;;;;8.47;4.70;;;11.60;99.90;;;;;;5042644;28;20210;-79
2022/11/06 10:25:57;;;;;;;9.90;4.30;;;11.70;99.90;;;;;;5046661;28;20226;-80
2022/11/06 10:28:44;;;;;;;12.27;4.73;;;11.70;99.90;;;;;;5042214;28;20197;-80
2022/11/06 10:31:17;;;;;;;8.93;4.27;;;11.70;99.90;;;;;;5053209;28;20489;-81
2022/11/06 10:33:55;;;;;;;9.93;4.57;;;11.70;99.90;;;;;;5046330;28;20195;-85
2022/11/06 10:36:26;;;;;;;10.53;4.30;;;11.70;99.90;;;;;;5035399;28;20206;-86
2022/11/06 10:38:54;;;;;;;8.63;4.37;;;11.80;99.90;;;;;;5053717;28;20626;-87
2022/11/06 10:41:24;;;;;;;7.60;4.17;;;11.70;99.90;;;;;;5053505;28;20306;-84
2022/11/06 10:43:55;;;;;;;10.83;4.80;;;11.80;99.90;;;;;;5053722;28;20291;-82
2022/11/06 10:46:29;;;;;;;10.73;4.63;;;11.70;99.90;;;;;;5053083;28;20196;-83
2022/11/06 10:48:59;;;;;;;10.93;5.10;;;11.70;99.90;;;;;;5044151;28;20221;-82
2022/11/06 10:51:43;;;;;;;15.40;4.70;;;11.70;99.90;;;;;;5033126;28;20297;-81
2022/11/06 10:54:25;;;;;;;10.80;4.70;;;11.70;99.90;;;;;;5034379;28;20222;-88
2022/11/06 10:57:05;;;;;;;10.63;4.93;;;11.70;99.90;;;;;;5035107;28;20614;-88
2022/11/06 10:59:32;;;;;;;11.83;4.93;;;11.80;99.90;;;;;;5034681;28;20579;-87
2022/11/06 11:01:59;;;;;;;8.07;4.93;;;11.80;99.90;;;;;;5035111;28;20245;-87
2022/11/06 11:04:26;;;;;;;9.83;4.03;;;11.80;99.90;;;;;;5034796;28;20286;-86
2022/11/06 11:06:53;;;;;;;12.93;5.13;;;11.80;99.90;;;;;;5035254;28;20203;-87
2022/11/06 11:09:30;;;;;;;6.83;3.90;;;11.80;99.90;;;;;;5035057;28;20210;-84
2022/11/06 11:11:57;;;;;;;9.63;4.43;;;11.80;99.90;;;;;;5038537;28;20207;-87
2022/11/06 11:14:26;;;;;;;7.93;3.87;;;11.90;99.90;;;;;;5054929;28;20202;-89
2022/11/06 11:16:54;;;;;;;10.47;4.70;;;11.80;99.90;;;;;;5055075;28;20742;-88
2022/11/06 11:19:27;;;;;;;9.13;4.73;;;11.80;99.90;;;;;;5054664;28;20848;-88
2022/11/06 11:21:58;;;;;;;9.20;4.80;;;11.80;99.90;;;;;;5053805;28;20255;-87
2022/11/06 11:24:26;;;;;;;10.07;4.33;;;11.80;99.90;;;;;;5054839;28;20202;-87
2022/11/06 11:26:58;;;;;;;11.63;5.63;;;11.80;99.90;;;;;;5054944;28;20209;-88
2022/11/06 11:29:29;;;;;;;11.83;4.57;;;11.80;99.90;;;;;;5055149;28;20190;-87
2022/11/06 11:31:58;;;;;;;8.73;4.47;;;11.90;99.90;;;;;;5037876;28;20282;-88
2022/11/06 11:34:29;;;;;;;8.90;4.40;;;11.90;99.90;;;;;;5034541;28;20198;-87
2022/11/06 11:36:59;;;;;;;11.00;4.53;;;11.90;99.90;;;;;;5047313;28;20270;-84
2022/11/06 11:39:29;;;;;;;9.63;4.63;;;11.90;99.90;;;;;;5050200;28;20592;-86
2022/11/06 11:42:26;;;;;;;11.33;4.53;;;11.90;99.90;;;;;;5034139;28;20237;-84
2022/11/06 11:45:12;;;;;;;6.93;4.40;;;11.90;99.90;;;;;;5042257;28;20264;-83
2022/11/06 11:47:41;;;;;;;5.60;4.07;;;11.90;99.90;;;;;;5053863;28;20293;-85
2022/11/06 11:50:19;;;;;;;5.37;3.63;;;11.90;99.90;;;;;;5054540;28;20212;-88
2022/11/06 11:52:47;;;;;;;7.10;3.50;;;11.90;99.90;;;;;;5044600;28;20226;-90
2022/11/06 11:55:17;;;;;;;5.97;3.53;;;12.00;99.90;;;;;;5034098;28;20202;-90
2022/11/06 11:57:48;;;;;;;4.27;3.60;;;12.00;99.90;;;;;;5035312;28;20206;-89
2022/11/06 12:00:17;;;;;;;3.97;3.20;;;11.90;99.90;;;;;;5034477;28;20513;-89
2022/11/06 12:02:47;;;;;;;6.20;3.40;;;12.00;99.90;;;;;;5034751;28;20222;-89
2022/11/06 12:05:21;;;;;;;5.27;3.63;;;11.90;99.90;;;;;;5034398;28;20193;-89
2022/11/06 12:07:52;;;;;;;5.60;3.60;;;11.90;99.90;;;;;;5049366;28;20293;-88
2022/11/06 12:10:25;;;;;;;5.43;3.90;;;11.90;99.90;;;;;;5055006;28;20197;-84
2022/11/06 12:12:55;;;;;;;5.17;3.47;;;11.90;99.90;;;;;;5033490;28;20277;-81
2022/11/06 12:15:25;;;;;;;4.87;3.43;;;11.90;99.90;;;;;;5032256;28;20562;-79
2022/11/06 12:17:56;;;;;;;5.73;3.20;;;11.90;99.90;;;;;;5042649;28;20316;-80
2022/11/06 12:20:27;;;;;;;6.07;3.93;;;11.90;99.90;;;;;;5050690;28;20194;-79
2022/11/06 12:22:56;;;;;;;4.73;3.10;;;11.90;99.90;;;;;;5052064;28;20806;-81
2022/11/06 12:25:27;;;;;;;6.73;3.70;;;11.90;99.90;;;;;;5052183;28;20205;-85
2022/11/06 12:27:59;;;;;;;4.67;3.00;;;11.90;99.90;;;;;;5043575;28;20501;-87
2022/11/06 12:30:27;;;;;;;4.50;3.67;;;12.00;99.90;;;;;;5033231;28;20270;-89
2022/11/06 12:33:03;;;;;;;4.47;3.50;;;12.00;99.90;;;;;;5048563;28;20288;-85
2022/11/06 12:35:31;;;;;;;6.53;3.03;;;12.00;99.90;;;;;;5053331;28;20194;-86
2022/11/06 12:38:10;;;;;;;7.13;3.43;;;11.90;99.90;;;;;;5053526;28;20590;-84
2022/11/06 12:40:40;;;;;;;7.17;2.83;;;11.90;99.90;;;;;;5052737;28;20201;-86
2022/11/06 12:43:16;;;;;;;4.07;2.40;;;11.90;99.90;;;;;;5049952;28;20248;-81
2022/11/06 12:45:54;;;;;;;7.57;3.30;;;11.90;99.90;;;;;;5051719;28;20313;-85
2022/11/06 12:48:35;;;;;;;6.57;2.53;;;11.90;99.90;;;;;;5051796;28;20201;-80
2022/11/06 12:51:10;;;;;;;5.37;2.70;;;11.90;99.90;;;;;;5052722;28;20212;-83
2022/11/06 12:53:48;;;;;;;7.83;2.87;;;11.80;99.90;;;;;;5038896;28;20221;-81
2022/11/06 12:56:21;;;;;;;5.53;2.70;;;11.80;99.90;;;;;;5050623;28;20213;-81
2022/11/06 12:59:03;;;;;;;8.97;2.47;;;11.80;99.90;;;;;;5032835;28;20754;-81
2022/11/06 13:01:42;;;;;;;10.20;3.63;;;11.80;99.90;;;;;;5033082;28;20277;-84
2022/11/06 13:04:27;;;;;;;7.27;2.73;;;11.80;99.90;;;;;;5038877;28;20217;-86
2022/11/06 13:07:07;;;;;;;9.43;3.37;;;11.80;99.90;;;;;;5049961;28;20203;-84
2022/11/06 13:09:41;;;;;;;7.80;3.20;;;11.80;99.90;;;;;;5039068;28;20190;-86